Time;durP1;ratioP1;P1;durP2;ratioP2;P2;SDS_P1;SDS_P2;PMS_P1;PMS_P2;Temp;Humidity;BMP_temperature;BMP_pressure;BME280_temperature;BME280_humidity;BME280_pressure;Samples;Min_cycle;Max_cycle;Signal;HPM_P1;HPM_P2
2024/02/01 00:00:40;;;;;;;43.80;27.77;;;1.70;99.90;;;;;;5020344;28;20274;-41
2024/02/01 00:03:06;;;;;;;45.77;30.20;;;1.60;99.90;;;;;;5018512;28;20187;-39
2024/02/01 00:05:31;;;;;;;41.70;30.27;;;1.60;99.90;;;;;;5019610;28;20193;-41
2024/02/01 00:07:57;;;;;;;39.03;27.53;;;1.60;99.90;;;;;;5019833;28;20257;-41
2024/02/01 00:10:22;;;;;;;47.57;31.67;;;1.50;99.90;;;;;;5023312;28;20234;-40
2024/02/01 00:12:48;;;;;;;44.03;28.57;;;1.50;99.90;;;;;;5024537;28;20190;-41
2024/02/01 00:15:14;;;;;;;45.13;29.20;;;1.50;99.90;;;;;;5023798;28;20182;-40
2024/02/01 00:17:40;;;;;;;47.90;29.87;;;1.40;99.90;;;;;;5024432;28;20428;-41
2024/02/01 00:20:06;;;;;;;43.20;29.40;;;1.40;99.90;;;;;;5023562;28;20190;-41
2024/02/01 00:22:32;;;;;;;48.47;30.20;;;1.40;99.90;;;;;;5023544;28;20211;-43
2024/02/01 00:24:59;;;;;;;43.63;30.17;;;1.40;99.90;;;;;;5023502;28;20726;-41
2024/02/01 00:27:25;;;;;;;43.00;27.73;;;1.30;99.90;;;;;;5023771;28;20182;-41
2024/02/01 00:29:50;;;;;;;39.77;28.17;;;1.30;99.90;;;;;;5023735;28;20204;-41
2024/02/01 00:32:16;;;;;;;44.73;29.70;;;1.30;99.90;;;;;;5024001;28;21276;-43
2024/02/01 00:34:44;;;;;;;39.17;28.97;;;1.30;99.90;;;;;;5023413;28;20247;-40
2024/02/01 00:37:10;;;;;;;52.13;30.33;;;1.30;99.90;;;;;;5023918;28;20299;-42
2024/02/01 00:39:36;;;;;;;45.73;29.77;;;1.30;99.90;;;;;;5022623;28;20192;-40
2024/02/01 00:42:02;;;;;;;43.80;28.60;;;1.20;99.90;;;;;;5023526;28;21527;-41
2024/02/01 00:44:27;;;;;;;42.60;29.30;;;1.20;99.90;;;;;;5023624;28;20237;-41
2024/02/01 00:46:53;;;;;;;44.80;28.77;;;1.20;99.90;;;;;;5023389;28;20240;-41
2024/02/01 00:49:19;;;;;;;42.20;30.63;;;1.20;99.90;;;;;;5023712;28;20464;-43
2024/02/01 00:51:44;;;;;;;45.97;30.53;;;1.20;99.90;;;;;;5023131;28;20532;-41
2024/02/01 00:54:10;;;;;;;38.33;27.53;;;1.20;99.90;;;;;;5037896;28;20193;-41
2024/02/01 00:56:35;;;;;;;38.50;28.90;;;1.20;99.90;;;;;;5023562;28;20193;-42
2024/02/01 00:59:01;;;;;;;44.10;29.03;;;1.20;99.90;;;;;;5023382;28;20634;-41
2024/02/01 01:01:27;;;;;;;45.97;30.70;;;1.20;99.90;;;;;;5023421;28;20684;-41
2024/02/01 01:03:54;;;;;;;43.70;28.87;;;1.20;99.90;;;;;;5022791;28;20221;-41
2024/02/01 01:06:20;;;;;;;40.45;29.35;;;1.20;99.90;;;;;;5022682;28;20192;-41
2024/02/01 01:08:45;;;;;;;45.23;30.57;;;1.20;99.90;;;;;;5023115;28;20190;-41
2024/02/01 01:11:11;;;;;;;50.47;32.17;;;1.20;99.90;;;;;;5022707;28;20200;-43
2024/02/01 01:13:37;;;;;;;44.87;28.43;;;1.20;99.90;;;;;;5023232;28;20190;-41
2024/02/01 01:16:03;;;;;;;53.43;31.67;;;1.20;99.90;;;;;;5022846;28;20528;-41
2024/02/01 01:18:28;;;;;;;43.80;28.77;;;1.20;99.90;;;;;;5023342;28;20237;-41
2024/02/01 01:20:56;;;;;;;50.60;30.57;;;1.30;99.90;;;;;;5021884;28;20925;-42
2024/02/01 01:23:22;;;;;;;46.25;31.17;;;1.20;99.90;;;;;;5022186;28;20241;-41
2024/02/01 01:25:48;;;;;;;42.57;29.37;;;1.20;99.90;;;;;;5023287;28;21219;-41
2024/02/01 01:28:13;;;;;;;45.40;30.20;;;1.20;99.90;;;;;;5022975;28;20189;-40
2024/02/01 01:30:39;;;;;;;49.23;30.37;;;1.20;99.90;;;;;;5022736;28;20202;-42
2024/02/01 01:33:05;;;;;;;45.60;29.90;;;1.20;99.90;;;;;;5022825;28;20185;-49
2024/02/01 01:35:30;;;;;;;45.83;31.20;;;1.20;99.90;;;;;;5022377;28;20189;-41
2024/02/01 01:37:56;;;;;;;49.67;31.20;;;1.20;99.90;;;;;;5022479;28;20469;-41
2024/02/01 01:40:23;;;;;;;52.40;32.57;;;1.20;99.90;;;;;;5022695;28;21254;-40
2024/02/01 01:42:48;;;;;;;48.58;32.08;;;1.10;99.90;;;;;;5022472;28;20185;-41
2024/02/01 01:45:16;;;;;;;45.10;33.20;;;1.10;99.90;;;;;;5022511;28;20549;-63
2024/02/01 01:47:42;;;;;;;44.08;31.58;;;1.20;99.90;;;;;;5022540;28;20612;-64
2024/02/01 01:50:08;;;;;;;45.17;31.90;;;1.20;99.90;;;;;;5022136;28;20186;-64
2024/02/01 01:52:36;;;;;;;47.13;30.50;;;1.30;99.90;;;;;;5021444;28;20440;-64
2024/02/01 01:55:03;;;;;;;47.72;31.55;;;1.30;99.90;;;;;;5021962;28;20178;-61
2024/02/01 01:57:29;;;;;;;50.40;33.60;;;1.30;99.90;;;;;;5021851;28;20979;-62
2024/02/01 01:59:57;;;;;;;50.65;31.08;;;1.30;99.90;;;;;;5022149;28;20200;-61
2024/02/01 02:02:25;;;;;;;49.55;30.02;;;1.40;99.90;;;;;;5021902;28;20245;-63
2024/02/01 02:04:51;;;;;;;43.22;30.77;;;1.40;99.90;;;;;;5021565;28;20189;-62
2024/02/01 02:07:16;;;;;;;44.45;32.20;;;1.40;99.90;;;;;;5021863;28;20404;-62
2024/02/01 02:09:42;;;;;;;53.03;31.80;;;1.50;99.90;;;;;;5021876;28;20192;-62
2024/02/01 02:12:10;;;;;;;51.13;31.90;;;1.50;99.90;;;;;;5022447;28;20627;-63
2024/02/01 02:14:36;;;;;;;53.70;31.65;;;1.50;99.90;;;;;;5021502;28;20417;-62
2024/02/01 02:17:03;;;;;;;51.83;31.77;;;1.50;99.90;;;;;;5021712;28;20674;-62
2024/02/01 02:19:28;;;;;;;49.38;32.85;;;1.50;99.90;;;;;;5020783;28;20468;-63
2024/02/01 02:21:54;;;;;;;40.03;28.87;;;1.50;99.90;;;;;;5020242;28;20668;-42
2024/02/01 02:24:20;;;;;;;53.23;30.97;;;1.50;99.90;;;;;;5021618;28;20482;-40
2024/02/01 02:26:47;;;;;;;47.17;31.67;;;1.60;99.90;;;;;;5018159;28;20518;-42
2024/02/01 02:29:14;;;;;;;55.30;33.75;;;1.50;99.90;;;;;;5020684;28;20185;-40
2024/02/01 02:31:40;;;;;;;48.40;31.58;;;1.60;99.90;;;;;;5021462;28;20193;-40
2024/02/01 02:34:06;;;;;;;44.78;30.58;;;1.60;99.90;;;;;;5020840;28;20621;-40
2024/02/01 02:36:32;;;;;;;48.58;31.92;;;1.60;99.90;;;;;;5021796;28;20303;-40
2024/02/01 02:38:58;;;;;;;45.90;33.00;;;1.60;99.90;;;;;;5020449;28;20277;-40
2024/02/01 02:41:23;;;;;;;55.00;35.87;;;1.60;99.90;;;;;;5021135;28;20706;-40
2024/02/01 02:43:49;;;;;;;47.83;31.93;;;1.60;99.90;;;;;;5020529;28;20233;-40
2024/02/01 02:46:15;;;;;;;50.03;33.43;;;1.60;99.90;;;;;;5021116;28;20919;-40
2024/02/01 02:48:41;;;;;;;52.03;32.90;;;1.60;99.90;;;;;;5021842;28;20877;-40
2024/02/01 02:51:07;;;;;;;49.33;32.07;;;1.70;99.90;;;;;;5021199;28;20185;-40
2024/02/01 02:53:33;;;;;;;49.08;30.73;;;1.70;99.90;;;;;;5021000;28;20187;-40
2024/02/01 02:55:58;;;;;;;48.90;31.77;;;1.70;99.90;;;;;;5020881;28;20194;-40
2024/02/01 02:58:24;;;;;;;45.77;32.23;;;1.80;99.90;;;;;;5021179;28;20217;-40
2024/02/01 03:00:50;;;;;;;53.05;31.58;;;1.80;99.90;;;;;;5021029;28;20256;-39
2024/02/01 03:03:16;;;;;;;46.60;31.07;;;1.80;99.90;;;;;;5021009;28;20636;-39
2024/02/01 03:05:43;;;;;;;48.35;33.45;;;1.80;99.90;;;;;;5021020;28;20558;-40
2024/02/01 03:08:09;;;;;;;48.00;31.70;;;1.80;99.90;;;;;;5006610;28;20174;-40
2024/02/01 03:10:38;;;;;;;44.80;30.35;;;1.80;99.90;;;;;;5019090;28;20282;-39
2024/02/01 03:13:10;;;;;;;49.60;29.85;;;1.80;99.90;;;;;;5020049;28;20210;-40
2024/02/01 03:15:39;;;;;;;57.13;31.63;;;1.80;99.90;;;;;;5020289;28;20649;-40
2024/02/01 03:18:05;;;;;;;47.92;29.08;;;1.80;99.90;;;;;;5020225;28;20784;-40
2024/02/01 03:20:32;;;;;;;43.88;30.95;;;1.90;99.90;;;;;;5020570;28;20181;-40
2024/02/01 03:22:58;;;;;;;48.97;30.77;;;1.90;99.90;;;;;;5020478;28;20229;-40
2024/02/01 03:25:32;;;;;;;47.63;31.65;;;1.90;99.90;;;;;;5020468;28;20186;-41
2024/02/01 03:28:04;;;;;;;54.00;31.33;;;2.00;99.90;;;;;;5020581;28;20197;-40
2024/02/01 03:30:48;;;;;;;46.47;29.95;;;2.00;99.90;;;;;;5020516;28;20253;-40
2024/02/01 03:33:14;;;;;;;47.38;28.70;;;2.20;99.90;;;;;;5020708;28;20175;-40
2024/02/01 03:35:41;;;;;;;50.50;31.97;;;2.20;99.90;;;;;;5019967;28;20699;-40
2024/02/01 03:38:08;;;;;;;49.00;31.27;;;2.20;99.90;;;;;;5020686;28;20183;-43
2024/02/01 03:40:38;;;;;;;48.47;31.73;;;2.30;99.90;;;;;;5020832;28;20574;-41
2024/02/01 03:43:04;;;;;;;42.40;28.70;;;2.40;99.90;;;;;;5020016;28;20182;-41
2024/02/01 03:45:29;;;;;;;48.00;30.93;;;2.50;99.90;;;;;;5019768;28;20390;-40
2024/02/01 03:47:55;;;;;;;41.53;29.67;;;2.50;99.90;;;;;;5020334;28;20174;-41
2024/02/01 03:50:21;;;;;;;42.20;29.13;;;2.50;99.90;;;;;;5020376;28;20335;-40
2024/02/01 03:52:47;;;;;;;35.77;27.47;;;2.60;99.90;;;;;;5020360;28;20174;-40
2024/02/01 03:55:16;;;;;;;44.77;29.10;;;2.70;99.90;;;;;;5020534;28;20182;-40
2024/02/01 03:57:45;;;;;;;40.60;27.67;;;2.70;99.90;;;;;;5020566;28;20178;-60
2024/02/01 04:00:24;;;;;;;37.15;27.38;;;2.80;99.90;;;;;;5020205;28;20248;-41
2024/02/01 04:03:14;;;;;;;34.60;26.70;;;2.90;99.90;;;;;;5020801;28;20238;-40
2024/02/01 04:05:41;;;;;;;42.97;27.38;;;3.00;99.90;;;;;;5020051;28;20198;-40
2024/02/01 04:08:10;;;;;;;40.25;27.77;;;3.10;99.90;;;;;;5020382;28;20273;-40
2024/02/01 04:10:37;;;;;;;33.80;25.27;;;3.20;99.90;;;;;;5019690;28;21059;-40
2024/02/01 04:13:05;;;;;;;38.78;27.15;;;3.30;99.90;;;;;;5019207;28;20174;-40
2024/02/01 04:15:31;;;;;;;31.27;24.45;;;3.40;99.90;;;;;;5034021;28;20271;-40
2024/02/01 04:17:57;;;;;;;32.47;24.40;;;3.40;99.90;;;;;;5020914;28;20214;-40
2024/02/01 04:20:23;;;;;;;29.50;26.30;;;3.50;99.90;;;;;;5019603;28;20397;-40
2024/02/01 04:22:53;;;;;;;29.77;26.17;;;3.50;99.90;;;;;;5020217;28;20166;-40
2024/02/01 04:25:20;;;;;;;25.90;23.10;;;3.60;99.90;;;;;;5019543;28;20190;-40
2024/02/01 04:27:49;;;;;;;26.35;23.60;;;3.80;99.90;;;;;;5020000;28;20265;-40
2024/02/01 04:30:16;;;;;;;29.60;23.80;;;3.90;99.90;;;;;;5019802;28;20637;-40
2024/02/01 04:32:42;;;;;;;22.33;20.50;;;4.00;99.90;;;;;;5018538;28;20183;-40
2024/02/01 04:35:08;;;;;;;20.80;19.20;;;4.30;99.90;;;;;;5019885;28;20189;-40
2024/02/01 04:37:33;;;;;;;19.63;18.13;;;4.60;99.90;;;;;;5020028;28;20198;-40
2024/02/01 04:40:00;;;;;;;18.67;17.30;;;4.80;99.90;;;;;;5019820;28;20997;-42
2024/02/01 04:42:30;;;;;;;19.90;18.40;;;5.10;99.90;;;;;;5019455;28;20249;-40
2024/02/01 04:44:58;;;;;;;19.00;17.70;;;5.30;99.90;;;;;;5020060;28;20182;-45
2024/02/01 04:47:25;;;;;;;19.77;18.48;;;5.40;99.90;;;;;;5019342;28;20174;-41
2024/02/01 04:49:51;;;;;;;20.73;19.33;;;5.60;99.90;;;;;;5019880;28;20187;-39
2024/02/01 04:52:17;;;;;;;20.13;18.83;;;5.80;99.90;;;;;;5019436;28;20194;-60
2024/02/01 04:54:42;;;;;;;20.50;19.10;;;5.90;99.90;;;;;;5019901;28;20217;-41
2024/02/01 04:57:13;;;;;;;20.27;18.77;;;6.00;99.90;;;;;;5022149;28;20649;-40
2024/02/01 04:59:44;;;;;;;19.05;17.80;;;6.10;99.90;;;;;;5023327;28;20201;-40
2024/02/01 05:02:16;;;;;;;20.15;18.65;;;6.10;99.90;;;;;;5023321;28;20198;-40
2024/02/01 05:04:43;;;;;;;19.90;18.60;;;6.20;99.90;;;;;;5023215;28;20220;-41
2024/02/01 05:07:09;;;;;;;19.65;18.17;;;6.30;99.90;;;;;;5023131;28;20656;-41
2024/02/01 05:09:39;;;;;;;19.42;17.92;;;6.30;99.90;;;;;;5022639;28;20303;-43
2024/02/01 05:12:06;;;;;;;19.42;18.15;;;6.30;99.90;;;;;;5022076;28;20598;-44
2024/02/01 05:14:32;;;;;;;19.63;18.33;;;6.30;99.90;;;;;;5023116;28;20187;-43
2024/02/01 05:16:58;;;;;;;18.80;17.70;;;6.30;99.90;;;;;;5021364;28;20194;-43
2024/02/01 05:19:25;;;;;;;18.30;17.20;;;6.20;99.90;;;;;;5022325;28;20229;-43
2024/02/01 05:21:54;;;;;;;18.10;16.98;;;6.30;99.90;;;;;;5021478;28;20476;-46
2024/02/01 05:24:23;;;;;;;18.33;17.20;;;6.30;99.90;;;;;;5022350;28;20181;-44
2024/02/01 05:26:52;;;;;;;18.52;17.42;;;6.30;99.90;;;;;;5022932;28;20256;-43
2024/02/01 05:29:19;;;;;;;17.67;16.58;;;6.30;99.90;;;;;;5022829;28;20197;-42
2024/02/01 05:31:47;;;;;;;19.05;17.75;;;6.20;99.90;;;;;;5022245;28;20717;-45
2024/02/01 05:34:16;;;;;;;19.10;17.92;;;6.20;99.90;;;;;;5022915;28;20244;-46
2024/02/01 05:36:52;;;;;;;18.52;17.45;;;6.20;99.90;;;;;;5022760;28;20197;-45
2024/02/01 05:39:25;;;;;;;18.65;17.55;;;6.10;99.90;;;;;;5022507;28;20229;-46
2024/02/01 05:41:55;;;;;;;17.88;16.75;;;6.20;99.90;;;;;;5021445;28;20399;-47
2024/02/01 05:44:22;;;;;;;18.98;17.58;;;6.10;99.90;;;;;;5022014;28;20240;-58
2024/02/01 05:46:48;;;;;;;18.60;17.60;;;6.10;99.90;;;;;;5022462;28;20253;-58
2024/02/01 05:49:18;;;;;;;18.35;17.15;;;6.10;99.90;;;;;;5022056;28;20270;-54
2024/02/01 05:51:47;;;;;;;17.83;16.77;;;6.10;99.90;;;;;;5020822;28;20200;-42
2024/02/01 05:54:13;;;;;;;16.85;15.95;;;6.10;99.90;;;;;;5021153;28;20459;-43
2024/02/01 05:56:39;;;;;;;17.17;16.13;;;6.20;99.90;;;;;;5021699;28;20601;-44
2024/02/01 05:59:05;;;;;;;16.70;15.67;;;6.10;99.90;;;;;;5019672;28;20277;-43
2024/02/01 06:01:31;;;;;;;16.20;15.30;;;6.10;99.90;;;;;;5020919;28;20210;-47
2024/02/01 06:03:56;;;;;;;16.90;15.90;;;6.00;99.90;;;;;;5021359;28;20186;-48
2024/02/01 06:06:22;;;;;;;17.57;16.07;;;6.10;99.90;;;;;;5020934;28;20919;-44
2024/02/01 06:08:47;;;;;;;17.00;15.93;;;6.00;99.90;;;;;;5021060;28;20189;-58
2024/02/01 06:11:13;;;;;;;16.80;15.90;;;6.10;99.90;;;;;;5020911;28;20179;-58
2024/02/01 06:13:42;;;;;;;15.80;14.80;;;6.20;99.90;;;;;;5017186;28;20174;-48
2024/02/01 06:16:11;;;;;;;17.02;16.10;;;6.20;99.90;;;;;;5021331;28;20652;-59
2024/02/01 06:18:37;;;;;;;16.10;15.20;;;6.20;99.90;;;;;;5020794;28;20234;-60
2024/02/01 06:21:02;;;;;;;16.47;15.47;;;6.20;99.90;;;;;;5020691;28;21045;-56
2024/02/01 06:23:28;;;;;;;16.73;15.53;;;6.20;99.90;;;;;;5020928;28;20413;-59
2024/02/01 06:25:53;;;;;;;16.93;15.93;;;6.20;99.90;;;;;;5020645;28;20183;-59
2024/02/01 06:28:22;;;;;;;16.70;15.67;;;6.30;99.90;;;;;;5020814;28;20643;-60
2024/02/01 06:30:48;;;;;;;15.93;15.02;;;6.30;99.90;;;;;;5020618;28;20190;-58
2024/02/01 06:33:13;;;;;;;16.23;15.23;;;6.30;99.90;;;;;;5020496;28;20997;-51
2024/02/01 06:35:40;;;;;;;15.63;14.83;;;6.30;99.90;;;;;;5020506;28;20704;-59
2024/02/01 06:38:15;;;;;;;15.77;14.88;;;6.30;99.90;;;;;;5020740;28;20240;-59
2024/02/01 06:43:31;;;;;;;15.75;14.93;;;6.40;99.90;;;;;;5019738;28;20182;-59
2024/02/01 06:46:08;;;;;;;16.20;15.30;;;6.30;99.90;;;;;;5019802;28;20476;-59
2024/02/01 06:48:43;;;;;;;15.67;14.87;;;6.40;99.90;;;;;;5018737;28;20432;-60
2024/02/01 06:51:24;;;;;;;16.40;15.40;;;6.40;99.90;;;;;;5020776;28;20413;-59
2024/02/01 06:54:05;;;;;;;15.43;14.63;;;6.40;99.90;;;;;;5020182;28;21001;-60
2024/02/01 06:56:52;;;;;;;16.83;15.83;;;6.50;99.90;;;;;;5019781;28;20179;-59
2024/02/01 06:59:30;;;;;;;15.35;14.55;;;6.50;99.90;;;;;;5019710;28;20435;-60
2024/02/01 07:02:14;;;;;;;15.93;14.98;;;6.50;99.90;;;;;;5019297;28;20570;-60
2024/02/01 07:04:50;;;;;;;15.80;14.90;;;6.50;99.90;;;;;;5018936;28;20197;-59
2024/02/01 07:07:26;;;;;;;14.70;13.80;;;6.60;99.90;;;;;;5019380;28;20205;-59
2024/02/01 07:09:58;;;;;;;14.60;13.80;;;6.70;99.90;;;;;;5019983;28;20432;-60
2024/02/01 07:12:42;;;;;;;15.00;14.20;;;6.70;99.90;;;;;;5019495;28;20219;-59
2024/02/01 07:17:58;;;;;;;14.63;13.83;;;6.80;99.90;;;;;;5019946;28;20422;-59
2024/02/01 07:20:35;;;;;;;15.70;14.80;;;6.80;99.90;;;;;;5019354;28;20426;-60
2024/02/01 07:25:49;;;;;;;16.07;15.10;;;6.90;99.90;;;;;;5020364;28;20424;-43
2024/02/01 07:58:21;;;;;;;14.40;13.60;;;7.20;99.90;;;;;;5019709;28;20600;-44
2024/02/01 08:00:51;;;;;;;12.87;12.20;;;7.20;99.90;;;;;;5019622;28;20523;-43
2024/02/01 08:03:42;;;;;;;14.17;13.37;;;7.20;99.90;;;;;;5019319;28;20508;-41
2024/02/01 08:08:53;;;;;;;14.53;13.73;;;7.20;99.90;;;;;;5019426;28;20424;-41
2024/02/01 08:11:19;;;;;;;14.53;13.73;;;7.10;99.90;;;;;;5018606;28;20460;-51
2024/02/01 08:13:48;;;;;;;13.57;12.87;;;7.20;99.90;;;;;;5019316;28;20425;-59
2024/02/01 08:16:17;;;;;;;14.10;13.30;;;7.20;99.90;;;;;;5019372;28;20179;-59
2024/02/01 08:18:43;;;;;;;14.20;13.40;;;7.20;99.90;;;;;;5018678;28;20467;-57
2024/02/01 08:21:14;;;;;;;14.00;13.30;;;7.30;99.90;;;;;;5019149;28;20850;-59
2024/02/01 08:23:40;;;;;;;15.03;14.13;;;7.30;99.90;;;;;;5019213;28;20441;-53
2024/02/01 08:26:06;;;;;;;13.80;12.90;;;7.30;99.90;;;;;;5019169;28;20428;-59
2024/02/01 08:28:32;;;;;;;14.37;13.60;;;7.30;99.90;;;;;;5017887;28;20972;-59
2024/02/01 08:31:02;;;;;;;13.93;13.03;;;7.30;99.90;;;;;;5021273;28;20197;-59
2024/02/01 08:33:28;;;;;;;13.30;12.60;;;7.40;99.90;;;;;;5022768;28;20273;-59
2024/02/01 08:35:54;;;;;;;14.73;13.60;;;7.40;99.90;;;;;;5023204;28;20476;-59
2024/02/01 08:38:20;;;;;;;14.20;13.20;;;7.40;99.90;;;;;;5022815;28;20902;-54
2024/02/01 08:40:46;;;;;;;13.67;12.97;;;7.40;99.90;;;;;;5022541;28;20214;-59
2024/02/01 08:43:13;;;;;;;13.60;12.90;;;7.30;99.90;;;;;;5022293;28;20277;-59
2024/02/01 08:45:40;;;;;;;13.63;12.83;;;7.30;99.90;;;;;;5022286;28;20903;-58
2024/02/01 08:48:08;;;;;;;14.50;13.70;;;7.30;99.90;;;;;;5022672;28;20520;-58
2024/02/01 08:50:43;;;;;;;14.50;13.70;;;7.30;99.90;;;;;;5022880;28;20471;-60
2024/02/01 08:53:09;;;;;;;14.77;13.97;;;7.40;99.90;;;;;;5022819;28;21212;-55
2024/02/01 08:55:35;;;;;;;14.63;13.83;;;7.40;99.90;;;;;;5022315;28;20596;-54
2024/02/01 08:58:08;;;;;;;14.77;13.90;;;7.40;99.90;;;;;;5022463;28;20928;-59
2024/02/01 09:00:34;;;;;;;15.03;14.13;;;7.40;99.90;;;;;;5022033;28;20174;-58
2024/02/01 09:03:03;;;;;;;14.07;13.37;;;7.40;99.90;;;;;;5022571;28;20432;-44
2024/02/01 09:05:50;;;;;;;15.37;14.57;;;7.40;99.90;;;;;;5022473;28;20543;-43
2024/02/01 09:08:34;;;;;;;14.23;13.37;;;7.50;99.90;;;;;;5022097;28;20555;-41
2024/02/01 09:11:01;;;;;;;15.70;14.60;;;7.60;99.90;;;;;;5021571;28;20409;-41
2024/02/01 09:13:28;;;;;;;14.53;13.73;;;7.60;99.90;;;;;;5022487;28;20429;-41
2024/02/01 09:15:54;;;;;;;15.30;14.50;;;7.70;99.90;;;;;;5021568;28;20867;-41
2024/02/01 09:18:20;;;;;;;15.20;14.40;;;7.70;99.90;;;;;;5022043;28;20626;-41
2024/02/01 09:20:47;;;;;;;15.37;14.57;;;7.80;99.90;;;;;;5022459;28;20421;-44
2024/02/01 09:23:13;;;;;;;14.50;13.73;;;7.80;99.90;;;;;;5021872;28;20420;-40
2024/02/01 09:25:40;;;;;;;15.03;14.20;;;7.80;99.90;;;;;;5021163;28;20429;-41
2024/02/01 09:28:13;;;;;;;15.07;14.27;;;7.80;99.90;;;;;;5019273;28;20479;-45
2024/02/01 09:30:46;;;;;;;15.03;14.13;;;7.80;99.90;;;;;;5021582;28;20479;-45
2024/02/01 09:33:16;;;;;;;15.37;14.57;;;7.80;99.90;;;;;;5022193;28;20508;-41
2024/02/01 09:35:43;;;;;;;15.40;14.50;;;7.70;99.90;;;;;;5021717;28;20502;-42
2024/02/01 09:38:09;;;;;;;15.77;14.77;;;7.70;99.90;;;;;;5022042;28;20922;-45
2024/02/01 09:40:53;;;;;;;16.40;15.40;;;7.80;99.90;;;;;;5021518;28;20714;-58
2024/02/01 09:43:21;;;;;;;15.40;14.60;;;7.80;99.90;;;;;;5021183;28;20405;-58
2024/02/01 09:45:51;;;;;;;15.33;14.53;;;7.80;99.90;;;;;;5021366;28;20932;-58
2024/02/01 09:48:18;;;;;;;15.40;14.47;;;7.80;99.90;;;;;;5021369;28;20903;-59
2024/02/01 09:50:51;;;;;;;15.27;14.37;;;7.80;99.90;;;;;;5021670;28;20432;-40
2024/02/01 09:53:28;;;;;;;15.67;14.57;;;7.80;99.90;;;;;;5021515;28;20425;-41
2024/02/01 09:55:58;;;;;;;15.50;14.70;;;7.80;99.90;;;;;;5020365;28;20782;-41
2024/02/01 09:58:26;;;;;;;16.03;15.13;;;7.80;99.90;;;;;;5021311;28;20959;-45
2024/02/01 10:00:53;;;;;;;15.87;14.97;;;7.80;99.90;;;;;;5021493;28;20429;-40
2024/02/01 10:03:22;;;;;;;16.30;15.40;;;7.90;99.90;;;;;;5021365;28;20425;-44
2024/02/01 10:05:49;;;;;;;15.73;14.83;;;7.90;99.90;;;;;;5019746;28;20432;-43
2024/02/01 10:08:16;;;;;;;15.10;14.30;;;8.10;99.90;;;;;;5021104;28;20816;-50
2024/02/01 10:10:44;;;;;;;15.80;14.80;;;8.00;99.90;;;;;;5020155;28;20791;-45
2024/02/01 10:13:13;;;;;;;14.97;14.17;;;8.10;99.90;;;;;;5020155;28;20437;-42
2024/02/01 10:15:48;;;;;;;15.60;14.67;;;8.10;99.90;;;;;;5020987;28;20979;-43
2024/02/01 10:18:21;;;;;;;15.73;14.77;;;8.10;99.90;;;;;;5021027;28;20472;-49
2024/02/01 10:20:58;;;;;;;15.40;14.50;;;8.20;99.90;;;;;;5021129;28;20771;-41
2024/02/01 10:23:24;;;;;;;15.87;14.97;;;8.40;99.90;;;;;;5019395;28;20459;-42
2024/02/01 10:25:53;;;;;;;15.00;14.20;;;8.50;99.90;;;;;;5020023;28;20525;-43
2024/02/01 10:28:34;;;;;;;16.57;15.60;;;8.50;99.90;;;;;;5020817;28;20962;-42
2024/02/01 10:31:00;;;;;;;15.00;14.30;;;8.60;99.90;;;;;;5020557;28;20421;-42
2024/02/01 10:33:30;;;;;;;16.47;15.40;;;8.70;99.90;;;;;;5020931;28;21172;-46
2024/02/01 10:35:59;;;;;;;17.80;16.80;;;9.20;99.90;;;;;;5020550;28;20421;-60
2024/02/01 10:38:27;;;;;;;16.90;16.00;;;9.40;75.10;;;;;;5020820;28;20974;-55
2024/02/01 10:40:59;;;;;;;15.97;15.07;;;9.70;72.90;;;;;;5020617;28;20449;-59
2024/02/01 10:43:30;;;;;;;14.80;14.00;;;10.00;23.90;;;;;;5020483;28;20421;-56
2024/02/01 10:46:08;;;;;;;15.17;14.30;;;10.20;28.10;;;;;;5020316;28;20437;-53
2024/02/01 10:48:52;;;;;;;13.77;13.07;;;10.30;1.00;;;;;;5020511;28;20453;-59
2024/02/01 10:51:18;;;;;;;12.70;12.03;;;10.40;1.00;;;;;;5019227;28;20421;-60
2024/02/01 10:53:46;;;;;;;13.50;12.80;;;10.20;1.00;;;;;;5020268;28;20917;-48
2024/02/01 10:56:16;;;;;;;13.70;12.90;;;10.10;1.00;;;;;;5019017;28;20487;-60
2024/02/01 10:58:48;;;;;;;13.30;12.60;;;10.00;1.00;;;;;;5019648;28;20755;-52
2024/02/01 11:01:17;;;;;;;13.80;13.10;;;10.10;1.00;;;;;;5020154;28;20463;-60
2024/02/01 11:03:55;;;;;;;13.97;13.17;;;10.10;1.00;;;;;;5020150;28;20405;-60
2024/02/01 11:06:20;;;;;;;14.70;13.90;;;10.40;1.00;;;;;;5020106;28;20417;-60
2024/02/01 11:08:51;;;;;;;13.60;12.80;;;11.00;1.00;;;;;;5020086;28;20487;-60
2024/02/01 11:11:22;;;;;;;13.83;13.03;;;11.60;1.00;;;;;;5020279;28;20209;-61
2024/02/01 11:14:09;;;;;;;13.20;12.50;;;11.90;99.90;;;;;;5020119;28;20908;-57
2024/02/01 11:16:41;;;;;;;13.17;12.47;;;12.70;99.90;;;;;;5019821;28;20416;-60
2024/02/01 11:19:11;;;;;;;13.40;12.60;;;13.30;99.90;;;;;;5017839;28;20998;-59
2024/02/01 11:21:49;;;;;;;13.20;12.50;;;13.80;99.50;;;;;;5019423;28;20465;-60
2024/02/01 11:24:21;;;;;;;13.40;12.70;;;13.70;97.90;;;;;;5019832;28;20534;-61
2024/02/01 11:26:54;;;;;;;13.30;12.50;;;13.60;95.50;;;;;;5018582;28;20888;-40
2024/02/01 11:29:23;;;;;;;14.60;13.80;;;12.90;96.00;;;;;;5020082;28;20428;-41
2024/02/01 11:31:56;;;;;;;13.93;13.13;;;12.40;97.70;;;;;;5019767;28;20511;-43
2024/02/01 11:34:27;;;;;;;15.03;14.13;;;11.80;99.10;;;;;;5019303;28;20471;-41
2024/02/01 11:36:53;;;;;;;14.40;13.50;;;11.60;99.90;;;;;;5019660;28;20425;-42
2024/02/01 11:39:22;;;;;;;14.30;13.50;;;11.30;99.90;;;;;;5019619;28;20433;-42
2024/02/01 11:41:50;;;;;;;13.30;12.60;;;11.00;99.90;;;;;;5019433;28;20863;-46
2024/02/01 11:44:19;;;;;;;13.10;12.30;;;10.60;99.90;;;;;;5019176;28;20496;-43
2024/02/01 11:46:46;;;;;;;13.03;12.23;;;10.50;99.90;;;;;;5019670;28;20491;-40
2024/02/01 11:49:17;;;;;;;12.60;11.80;;;10.30;99.90;;;;;;5019330;28;20692;-42
2024/02/01 11:51:44;;;;;;;12.90;12.20;;;10.10;99.90;;;;;;5019709;28;20911;-43
2024/02/01 11:54:10;;;;;;;12.23;11.63;;;10.00;99.90;;;;;;5019761;28;20894;-40
2024/02/01 11:56:36;;;;;;;12.43;11.70;;;9.70;99.90;;;;;;5018306;28;20441;-42
2024/02/01 11:59:04;;;;;;;12.17;11.30;;;9.60;99.90;;;;;;5017628;28;20598;-53
2024/02/01 12:01:30;;;;;;;12.50;11.90;;;9.50;99.90;;;;;;5019128;28;20845;-40
2024/02/01 12:03:57;;;;;;;12.73;11.93;;;9.40;99.90;;;;;;5019488;28;20428;-39
2024/02/01 12:06:24;;;;;;;12.53;11.93;;;9.30;99.90;;;;;;5022517;28;20417;-42
2024/02/01 12:08:50;;;;;;;13.60;12.80;;;9.30;99.90;;;;;;5023137;28;20429;-41
2024/02/01 12:11:16;;;;;;;11.40;10.73;;;9.20;99.90;;;;;;5023624;28;20924;-41
2024/02/01 12:13:46;;;;;;;13.07;12.37;;;9.40;99.90;;;;;;5023172;28;20425;-39
2024/02/01 12:16:34;;;;;;;12.60;11.90;;;9.30;99.90;;;;;;5023490;28;20510;-40
2024/02/01 12:19:00;;;;;;;12.57;11.97;;;9.20;99.90;;;;;;5022784;28;20513;-44
2024/02/01 12:21:29;;;;;;;12.77;12.17;;;9.20;99.90;;;;;;5023119;28;21013;-44
2024/02/01 12:24:01;;;;;;;12.50;11.80;;;9.20;99.90;;;;;;5022848;28;20428;-42
2024/02/01 12:26:28;;;;;;;12.30;11.70;;;9.20;99.90;;;;;;5022347;28;20782;-40
2024/02/01 12:28:54;;;;;;;11.80;11.30;;;9.40;99.90;;;;;;5023260;28;20417;-39
2024/02/01 12:31:21;;;;;;;12.80;11.97;;;9.60;99.90;;;;;;5023252;28;20425;-42
2024/02/01 12:33:48;;;;;;;12.33;11.63;;;9.60;99.90;;;;;;5023115;28;20409;-40
2024/02/01 12:36:14;;;;;;;12.40;11.77;;;9.50;99.90;;;;;;5022841;28;20784;-39
2024/02/01 12:38:44;;;;;;;12.30;11.50;;;9.40;99.90;;;;;;5022827;28;20954;-59
2024/02/01 12:41:11;;;;;;;12.87;12.00;;;9.70;99.90;;;;;;5022608;28;20471;-59
2024/02/01 12:43:37;;;;;;;11.87;11.27;;;10.40;98.80;;;;;;5021781;28;20903;-59
2024/02/01 12:46:03;;;;;;;11.80;11.30;;;11.10;96.20;;;;;;5022395;28;20425;-60
2024/02/01 12:48:29;;;;;;;12.60;11.80;;;11.50;93.90;;;;;;5022889;28;20772;-59
2024/02/01 12:50:55;;;;;;;12.63;11.83;;;12.20;92.00;;;;;;5022317;28;20727;-59
2024/02/01 12:53:21;;;;;;;12.80;12.10;;;12.80;88.50;;;;;;5022829;28;20417;-43
2024/02/01 12:55:48;;;;;;;12.23;11.53;;;13.30;85.20;;;;;;5020903;28;20301;-60
2024/02/01 12:58:18;;;;;;;13.00;12.10;;;13.90;81.70;;;;;;5021203;28;20433;-55
2024/02/01 13:00:46;;;;;;;11.97;11.27;;;14.40;75.80;;;;;;5022284;28;20515;-60
2024/02/01 13:03:12;;;;;;;12.57;11.87;;;14.40;72.20;;;;;;5022269;28;20564;-60
2024/02/01 13:05:38;;;;;;;13.40;12.40;;;14.70;71.30;;;;;;5022366;28;20413;-60
2024/02/01 13:08:04;;;;;;;12.70;11.90;;;14.70;70.50;;;;;;5021895;28;20292;-60
2024/02/01 13:10:38;;;;;;;12.70;11.90;;;15.20;69.70;;;;;;5022490;28;20183;-59
2024/02/01 13:13:07;;;;;;;12.73;12.10;;;15.20;67.00;;;;;;5022120;28;20416;-49
2024/02/01 13:15:33;;;;;;;12.90;12.30;;;15.50;63.50;;;;;;5022007;28;20448;-50
2024/02/01 13:17:59;;;;;;;12.80;12.10;;;15.70;64.10;;;;;;5020402;28;20502;-60
2024/02/01 13:20:26;;;;;;;12.47;11.77;;;15.60;63.00;;;;;;5022004;28;20413;-60
2024/02/01 13:22:53;;;;;;;13.00;12.10;;;15.80;62.30;;;;;;5020057;28;20461;-59